sensor_id;sensor_type;location;lat;lon;timestamp;temperature;humidity
11961;DHT22;6040;49.358;11.140;2023-03-20T00:00:16;8.30;99.90
11961;DHT22;6040;49.358;11.140;2023-03-20T00:02:43;8.20;99.90
11961;DHT22;6040;49.358;11.140;2023-03-20T00:05:19;8.30;99.90
11961;DHT22;6040;49.358;11.140;2023-03-20T00:07:47;8.20;99.90
11961;DHT22;6040;49.358;11.140;2023-03-20T00:10:14;8.30;99.90
11961;DHT22;6040;49.358;11.140;2023-03-20T00:12:42;8.30;99.90
11961;DHT22;6040;49.358;11.140;2023-03-20T00:15:23;8.30;99.90
11961;DHT22;6040;49.358;11.140;2023-03-20T00:17:50;8.20;99.90
11961;DHT22;6040;49.358;11.140;2023-03-20T00:20:17;8.20;99.90
11961;DHT22;6040;49.358;11.140;2023-03-20T00:22:44;8.20;99.90
11961;DHT22;6040;49.358;11.140;2023-03-20T00:25:13;8.20;99.90
11961;DHT22;6040;49.358;11.140;2023-03-20T00:27:41;8.10;99.90
11961;DHT22;6040;49.358;11.140;2023-03-20T00:30:21;8.10;99.90
11961;DHT22;6040;49.358;11.140;2023-03-20T00:32:51;8.10;99.90
11961;DHT22;6040;49.358;11.140;2023-03-20T00:35:21;8.10;99.90
11961;DHT22;6040;49.358;11.140;2023-03-20T00:37:49;8.10;99.90
11961;DHT22;6040;49.358;11.140;2023-03-20T00:40:16;8.10;99.90
11961;DHT22;6040;49.358;11.140;2023-03-20T00:42:45;8.00;99.90
11961;DHT22;6040;49.358;11.140;2023-03-20T00:45:15;8.00;99.90
11961;DHT22;6040;49.358;11.140;2023-03-20T00:47:44;8.00;99.90
11961;DHT22;6040;49.358;11.140;2023-03-20T00:50:18;8.00;99.90
11961;DHT22;6040;49.358;11.140;2023-03-20T00:52:45;8.00;99.90
11961;DHT22;6040;49.358;11.140;2023-03-20T00:55:12;7.90;99.90
11961;DHT22;6040;49.358;11.140;2023-03-20T00:57:42;7.90;99.90
11961;DHT22;6040;49.358;11.140;2023-03-20T01:00:20;7.90;99.90
11961;DHT22;6040;49.358;11.140;2023-03-20T01:02:49;7.90;99.90
11961;DHT22;6040;49.358;11.140;2023-03-20T01:05:17;7.90;99.90
11961;DHT22;6040;49.358;11.140;2023-03-20T01:07:44;7.90;99.90
11961;DHT22;6040;49.358;11.140;2023-03-20T01:10:11;8.40;99.90
11961;DHT22;6040;49.358;11.140;2023-03-20T01:12:39;7.80;99.90
11961;DHT22;6040;49.358;11.140;2023-03-20T01:15:16;7.80;99.90
11961;DHT22;6040;49.358;11.140;2023-03-20T01:17:43;7.70;99.90
11961;DHT22;6040;49.358;11.140;2023-03-20T01:20:14;7.70;99.90
11961;DHT22;6040;49.358;11.140;2023-03-20T01:22:41;7.70;99.90
11961;DHT22;6040;49.358;11.140;2023-03-20T01:25:08;7.60;99.90
11961;DHT22;6040;49.358;11.140;2023-03-20T01:27:36;7.60;99.90
11961;DHT22;6040;49.358;11.140;2023-03-20T01:30:05;7.60;99.90
11961;DHT22;6040;49.358;11.140;2023-03-20T01:32:32;7.60;99.90
11961;DHT22;6040;49.358;11.140;2023-03-20T01:34:59;7.50;99.90
11961;DHT22;6040;49.358;11.140;2023-03-20T01:37:27;7.50;99.90
11961;DHT22;6040;49.358;11.140;2023-03-20T01:39:55;7.50;99.90
11961;DHT22;6040;49.358;11.140;2023-03-20T01:42:22;7.40;99.90
11961;DHT22;6040;49.358;11.140;2023-03-20T01:44:49;8.60;99.90
11961;DHT22;6040;49.358;11.140;2023-03-20T01:47:19;7.40;99.90
11961;DHT22;6040;49.358;11.140;2023-03-20T01:50:21;7.40;99.90
11961;DHT22;6040;49.358;11.140;2023-03-20T01:52:57;7.40;99.90
11961;DHT22;6040;49.358;11.140;2023-03-20T01:55:25;7.30;99.90
11961;DHT22;6040;49.358;11.140;2023-03-20T01:57:53;7.30;99.90
11961;DHT22;6040;49.358;11.140;2023-03-20T02:00:22;7.30;99.90
11961;DHT22;6040;49.358;11.140;2023-03-20T02:02:49;7.30;99.90
11961;DHT22;6040;49.358;11.140;2023-03-20T02:05:18;8.20;99.90
11961;DHT22;6040;49.358;11.140;2023-03-20T02:07:58;7.30;99.90
11961;DHT22;6040;49.358;11.140;2023-03-20T02:10:28;7.30;99.90
11961;DHT22;6040;49.358;11.140;2023-03-20T02:12:55;8.20;99.90
11961;DHT22;6040;49.358;11.140;2023-03-20T02:15:25;7.40;99.90
11961;DHT22;6040;49.358;11.140;2023-03-20T02:17:52;8.60;99.90
11961;DHT22;6040;49.358;11.140;2023-03-20T02:20:31;7.40;99.90
11961;DHT22;6040;49.358;11.140;2023-03-20T02:23:21;7.40;99.90
11961;DHT22;6040;49.358;11.140;2023-03-20T02:29:14;7.40;99.90
11961;DHT22;6040;49.358;11.140;2023-03-20T02:38:28;7.40;99.90
11961;DHT22;6040;49.358;11.140;2023-03-20T02:41:00;7.50;99.90
11961;DHT22;6040;49.358;11.140;2023-03-20T02:43:37;7.50;99.90
11961;DHT22;6040;49.358;11.140;2023-03-20T02:46:12;7.50;99.90
11961;DHT22;6040;49.358;11.140;2023-03-20T02:48:46;7.50;99.90
11961;DHT22;6040;49.358;11.140;2023-03-20T02:51:24;7.50;99.90
11961;DHT22;6040;49.358;11.140;2023-03-20T02:54:02;7.50;99.90
11961;DHT22;6040;49.358;11.140;2023-03-20T02:56:36;7.50;99.90
11961;DHT22;6040;49.358;11.140;2023-03-20T02:59:13;7.50;99.90
11961;DHT22;6040;49.358;11.140;2023-03-20T03:01:43;7.50;99.90
11961;DHT22;6040;49.358;11.140;2023-03-20T03:04:16;7.50;99.90
11961;DHT22;6040;49.358;11.140;2023-03-20T03:06:46;7.50;99.90
11961;DHT22;6040;49.358;11.140;2023-03-20T03:09:19;7.50;99.90
11961;DHT22;6040;49.358;11.140;2023-03-20T03:11:50;7.50;99.90
11961;DHT22;6040;49.358;11.140;2023-03-20T03:14:25;7.60;99.90
11961;DHT22;6040;49.358;11.140;2023-03-20T03:16:55;8.20;99.90
11961;DHT22;6040;49.358;11.140;2023-03-20T03:19:25;7.60;99.90
11961;DHT22;6040;49.358;11.140;2023-03-20T03:21:54;7.50;99.90
11961;DHT22;6040;49.358;11.140;2023-03-20T03:24:27;7.50;99.90
11961;DHT22;6040;49.358;11.140;2023-03-20T03:26:55;7.40;99.90
11961;DHT22;6040;49.358;11.140;2023-03-20T03:29:24;7.40;99.90
11961;DHT22;6040;49.358;11.140;2023-03-20T03:31:53;7.40;99.90
11961;DHT22;6040;49.358;11.140;2023-03-20T03:34:21;7.30;99.90
11961;DHT22;6040;49.358;11.140;2023-03-20T03:36:52;7.30;99.90
11961;DHT22;6040;49.358;11.140;2023-03-20T03:39:26;7.30;99.90
11961;DHT22;6040;49.358;11.140;2023-03-20T03:42:04;7.30;99.90
11961;DHT22;6040;49.358;11.140;2023-03-20T03:44:36;7.20;99.90
11961;DHT22;6040;49.358;11.140;2023-03-20T03:47:10;7.20;99.90
11961;DHT22;6040;49.358;11.140;2023-03-20T03:49:41;7.30;99.90
11961;DHT22;6040;49.358;11.140;2023-03-20T03:52:12;7.20;99.90
11961;DHT22;6040;49.358;11.140;2023-03-20T03:54:44;7.20;99.90
11961;DHT22;6040;49.358;11.140;2023-03-20T03:57:15;7.10;99.90
11961;DHT22;6040;49.358;11.140;2023-03-20T03:59:46;7.10;99.90
11961;DHT22;6040;49.358;11.140;2023-03-20T04:02:15;7.10;99.90
11961;DHT22;6040;49.358;11.140;2023-03-20T04:04:46;7.10;99.90
11961;DHT22;6040;49.358;11.140;2023-03-20T04:07:14;7.10;99.90
11961;DHT22;6040;49.358;11.140;2023-03-20T04:09:43;7.10;99.90
11961;DHT22;6040;49.358;11.140;2023-03-20T04:12:30;7.10;99.90
11961;DHT22;6040;49.358;11.140;2023-03-20T04:14:58;7.10;99.90
11961;DHT22;6040;49.358;11.140;2023-03-20T04:17:24;7.00;99.90
11961;DHT22;6040;49.358;11.140;2023-03-20T04:19:51;7.10;99.90
11961;DHT22;6040;49.358;11.140;2023-03-20T04:22:18;7.40;99.90
11961;DHT22;6040;49.358;11.140;2023-03-20T04:24:46;7.00;99.90
11961;DHT22;6040;49.358;11.140;2023-03-20T04:27:13;8.20;99.90
11961;DHT22;6040;49.358;11.140;2023-03-20T04:29:41;7.00;99.90
11961;DHT22;6040;49.358;11.140;2023-03-20T04:32:09;7.00;99.90
11961;DHT22;6040;49.358;11.140;2023-03-20T04:34:36;7.00;99.90
11961;DHT22;6040;49.358;11.140;2023-03-20T04:37:02;7.00;99.90
11961;DHT22;6040;49.358;11.140;2023-03-20T04:39:30;7.00;99.90
11961;DHT22;6040;49.358;11.140;2023-03-20T04:41:58;6.90;99.90
11961;DHT22;6040;49.358;11.140;2023-03-20T04:44:25;7.00;99.90
11961;DHT22;6040;49.358;11.140;2023-03-20T04:46:52;6.90;99.90
11961;DHT22;6040;49.358;11.140;2023-03-20T04:49:18;6.90;99.90
11961;DHT22;6040;49.358;11.140;2023-03-20T04:51:45;6.90;99.90
11961;DHT22;6040;49.358;11.140;2023-03-20T04:54:12;6.90;99.90
11961;DHT22;6040;49.358;11.140;2023-03-20T04:56:39;6.90;99.90
11961;DHT22;6040;49.358;11.140;2023-03-20T04:59:07;6.90;99.90
11961;DHT22;6040;49.358;11.140;2023-03-20T05:01:34;6.90;99.90
11961;DHT22;6040;49.358;11.140;2023-03-20T05:04:01;6.90;99.90
11961;DHT22;6040;49.358;11.140;2023-03-20T05:06:28;6.90;99.90
11961;DHT22;6040;49.358;11.140;2023-03-20T05:08:56;6.90;99.90
11961;DHT22;6040;49.358;11.140;2023-03-20T05:11:24;6.90;99.90
11961;DHT22;6040;49.358;11.140;2023-03-20T05:13:51;7.20;99.90
11961;DHT22;6040;49.358;11.140;2023-03-20T05:16:19;6.90;99.90
11961;DHT22;6040;49.358;11.140;2023-03-20T05:18:46;8.00;99.90
11961;DHT22;6040;49.358;11.140;2023-03-20T05:21:14;8.00;99.90
11961;DHT22;6040;49.358;11.140;2023-03-20T05:23:41;6.90;99.90
11961;DHT22;6040;49.358;11.140;2023-03-20T05:26:07;6.90;99.90
11961;DHT22;6040;49.358;11.140;2023-03-20T05:28:35;6.90;99.90
11961;DHT22;6040;49.358;11.140;2023-03-20T05:31:02;7.00;99.90
11961;DHT22;6040;49.358;11.140;2023-03-20T05:33:30;7.00;99.90
11961;DHT22;6040;49.358;11.140;2023-03-20T05:35:57;7.20;99.90
11961;DHT22;6040;49.358;11.140;2023-03-20T05:38:24;7.00;99.90
11961;DHT22;6040;49.358;11.140;2023-03-20T05:40:55;7.00;99.90
11961;DHT22;6040;49.358;11.140;2023-03-20T05:43:23;7.00;99.90
11961;DHT22;6040;49.358;11.140;2023-03-20T05:45:50;7.00;99.90
11961;DHT22;6040;49.358;11.140;2023-03-20T05:48:17;7.10;99.90
11961;DHT22;6040;49.358;11.140;2023-03-20T05:50:46;7.10;99.90
11961;DHT22;6040;49.358;11.140;2023-03-20T05:53:13;7.10;99.90
11961;DHT22;6040;49.358;11.140;2023-03-20T05:55:40;7.20;99.90
11961;DHT22;6040;49.358;11.140;2023-03-20T05:58:09;7.20;99.90
11961;DHT22;6040;49.358;11.140;2023-03-20T06:00:36;7.20;99.90
11961;DHT22;6040;49.358;11.140;2023-03-20T06:03:03;7.30;99.90
11961;DHT22;6040;49.358;11.140;2023-03-20T06:05:31;7.30;99.90
11961;DHT22;6040;49.358;11.140;2023-03-20T06:07:59;7.30;99.90
11961;DHT22;6040;49.358;11.140;2023-03-20T06:10:26;7.30;99.90
11961;DHT22;6040;49.358;11.140;2023-03-20T06:12:54;7.40;99.90
11961;DHT22;6040;49.358;11.140;2023-03-20T06:15:22;7.40;99.90
11961;DHT22;6040;49.358;11.140;2023-03-20T06:17:49;7.40;99.90
11961;DHT22;6040;49.358;11.140;2023-03-20T06:20:16;7.40;99.90
11961;DHT22;6040;49.358;11.140;2023-03-20T06:22:44;7.50;99.90
11961;DHT22;6040;49.358;11.140;2023-03-20T06:25:12;7.60;99.90
11961;DHT22;6040;49.358;11.140;2023-03-20T06:27:39;8.60;99.90
11961;DHT22;6040;49.358;11.140;2023-03-20T06:30:07;7.60;99.90
11961;DHT22;6040;49.358;11.140;2023-03-20T06:32:33;7.60;99.90
11961;DHT22;6040;49.358;11.140;2023-03-20T06:35:00;7.70;99.90
11961;DHT22;6040;49.358;11.140;2023-03-20T06:37:27;7.70;99.90
11961;DHT22;6040;49.358;11.140;2023-03-20T06:39:54;8.00;99.90
11961;DHT22;6040;49.358;11.140;2023-03-20T06:42:22;7.80;99.90
11961;DHT22;6040;49.358;11.140;2023-03-20T06:44:49;7.80;99.90
11961;DHT22;6040;49.358;11.140;2023-03-20T06:47:16;7.80;99.90
11961;DHT22;6040;49.358;11.140;2023-03-20T06:49:42;7.90;99.90
11961;DHT22;6040;49.358;11.140;2023-03-20T06:52:13;7.90;99.90
11961;DHT22;6040;49.358;11.140;2023-03-20T06:54:42;7.90;99.90
11961;DHT22;6040;49.358;11.140;2023-03-20T06:57:08;8.00;99.90
11961;DHT22;6040;49.358;11.140;2023-03-20T06:59:37;8.60;99.90
11961;DHT22;6040;49.358;11.140;2023-03-20T07:02:04;8.00;99.90
11961;DHT22;6040;49.358;11.140;2023-03-20T07:04:31;8.00;99.90
11961;DHT22;6040;49.358;11.140;2023-03-20T07:06:58;8.10;99.90
11961;DHT22;6040;49.358;11.140;2023-03-20T07:09:25;8.10;99.90
11961;DHT22;6040;49.358;11.140;2023-03-20T07:11:52;8.20;99.90
11961;DHT22;6040;49.358;11.140;2023-03-20T07:14:19;8.20;99.90
11961;DHT22;6040;49.358;11.140;2023-03-20T07:16:48;8.30;99.90
11961;DHT22;6040;49.358;11.140;2023-03-20T07:19:15;8.40;99.90
11961;DHT22;6040;49.358;11.140;2023-03-20T07:21:42;8.40;99.90
11961;DHT22;6040;49.358;11.140;2023-03-20T07:24:09;8.50;99.90
11961;DHT22;6040;49.358;11.140;2023-03-20T07:26:36;8.60;99.90
11961;DHT22;6040;49.358;11.140;2023-03-20T07:29:04;8.70;99.90
11961;DHT22;6040;49.358;11.140;2023-03-20T07:31:31;8.80;99.90
11961;DHT22;6040;49.358;11.140;2023-03-20T07:33:59;9.80;99.90
11961;DHT22;6040;49.358;11.140;2023-03-20T07:36:26;8.90;99.90
11961;DHT22;6040;49.358;11.140;2023-03-20T07:38:53;8.90;99.90
11961;DHT22;6040;49.358;11.140;2023-03-20T07:41:20;9.00;99.90
11961;DHT22;6040;49.358;11.140;2023-03-20T07:43:46;9.10;99.90
11961;DHT22;6040;49.358;11.140;2023-03-20T07:46:13;9.20;99.90
11961;DHT22;6040;49.358;11.140;2023-03-20T07:48:40;9.20;99.90
11961;DHT22;6040;49.358;11.140;2023-03-20T07:51:08;9.30;99.90
11961;DHT22;6040;49.358;11.140;2023-03-20T07:53:35;9.30;99.90
11961;DHT22;6040;49.358;11.140;2023-03-20T07:56:02;9.40;99.90
11961;DHT22;6040;49.358;11.140;2023-03-20T07:58:29;9.40;99.90
11961;DHT22;6040;49.358;11.140;2023-03-20T08:00:56;9.50;99.90
11961;DHT22;6040;49.358;11.140;2023-03-20T08:03:23;9.60;99.90
11961;DHT22;6040;49.358;11.140;2023-03-20T08:05:50;9.60;99.90
11961;DHT22;6040;49.358;11.140;2023-03-20T08:08:18;9.70;99.90
11961;DHT22;6040;49.358;11.140;2023-03-20T08:10:45;9.90;99.90
11961;DHT22;6040;49.358;11.140;2023-03-20T08:13:12;10.00;99.90
11961;DHT22;6040;49.358;11.140;2023-03-20T08:15:39;10.70;99.90
11961;DHT22;6040;49.358;11.140;2023-03-20T08:18:06;10.20;99.90
11961;DHT22;6040;49.358;11.140;2023-03-20T08:20:33;10.30;99.90
11961;DHT22;6040;49.358;11.140;2023-03-20T08:23:00;10.30;99.90
11961;DHT22;6040;49.358;11.140;2023-03-20T08:25:28;10.30;99.90
11961;DHT22;6040;49.358;11.140;2023-03-20T08:27:58;10.30;99.90
11961;DHT22;6040;49.358;11.140;2023-03-20T08:30:25;10.40;99.90
11961;DHT22;6040;49.358;11.140;2023-03-20T08:32:52;10.40;99.90
11961;DHT22;6040;49.358;11.140;2023-03-20T08:35:19;10.40;99.90
11961;DHT22;6040;49.358;11.140;2023-03-20T08:37:45;10.50;99.90
11961;DHT22;6040;49.358;11.140;2023-03-20T08:40:13;10.50;99.90
11961;DHT22;6040;49.358;11.140;2023-03-20T08:42:41;10.50;99.90
11961;DHT22;6040;49.358;11.140;2023-03-20T08:45:09;10.60;99.90
11961;DHT22;6040;49.358;11.140;2023-03-20T08:47:36;10.70;99.90
11961;DHT22;6040;49.358;11.140;2023-03-20T08:50:04;11.40;99.90
11961;DHT22;6040;49.358;11.140;2023-03-20T08:52:31;10.70;99.90
11961;DHT22;6040;49.358;11.140;2023-03-20T08:54:58;10.90;99.90
11961;DHT22;6040;49.358;11.140;2023-03-20T08:57:25;10.60;99.90
11961;DHT22;6040;49.358;11.140;2023-03-20T08:59:54;10.80;99.90
11961;DHT22;6040;49.358;11.140;2023-03-20T09:05:43;11.00;99.90
11961;DHT22;6040;49.358;11.140;2023-03-20T09:11:32;11.30;99.90
11961;DHT22;6040;49.358;11.140;2023-03-20T09:17:22;11.40;99.90
11961;DHT22;6040;49.358;11.140;2023-03-20T09:23:11;11.50;99.90
11961;DHT22;6040;49.358;11.140;2023-03-20T09:28:59;12.80;99.90
11961;DHT22;6040;49.358;11.140;2023-03-20T09:34:49;11.60;99.90
11961;DHT22;6040;49.358;11.140;2023-03-20T09:37:16;11.60;99.90
11961;DHT22;6040;49.358;11.140;2023-03-20T09:39:42;11.70;99.90
11961;DHT22;6040;49.358;11.140;2023-03-20T09:42:20;11.70;99.90
11961;DHT22;6040;49.358;11.140;2023-03-20T09:44:55;11.80;99.90
11961;DHT22;6040;49.358;11.140;2023-03-20T09:47:30;11.90;99.90
11961;DHT22;6040;49.358;11.140;2023-03-20T09:50:10;12.00;99.90
11961;DHT22;6040;49.358;11.140;2023-03-20T09:52:42;12.00;99.90
11961;DHT22;6040;49.358;11.140;2023-03-20T09:55:13;12.20;99.90
11961;DHT22;6040;49.358;11.140;2023-03-20T09:57:42;12.00;99.90
11961;DHT22;6040;49.358;11.140;2023-03-20T10:00:13;12.10;99.90
11961;DHT22;6040;49.358;11.140;2023-03-20T10:02:46;12.30;99.90
11961;DHT22;6040;49.358;11.140;2023-03-20T10:05:21;12.20;99.90
11961;DHT22;6040;49.358;11.140;2023-03-20T10:07:50;12.30;99.90
11961;DHT22;6040;49.358;11.140;2023-03-20T10:10:17;12.30;99.90
11961;DHT22;6040;49.358;11.140;2023-03-20T10:12:52;12.40;99.90
11961;DHT22;6040;49.358;11.140;2023-03-20T10:15:31;12.40;99.90
11961;DHT22;6040;49.358;11.140;2023-03-20T10:18:07;12.90;99.90
11961;DHT22;6040;49.358;11.140;2023-03-20T10:20:43;12.40;99.90
11961;DHT22;6040;49.358;11.140;2023-03-20T10:23:19;12.30;99.90
11961;DHT22;6040;49.358;11.140;2023-03-20T10:25:54;12.40;99.90
11961;DHT22;6040;49.358;11.140;2023-03-20T10:28:28;12.30;99.90
11961;DHT22;6040;49.358;11.140;2023-03-20T10:31:10;12.40;99.90
11961;DHT22;6040;49.358;11.140;2023-03-20T10:33:47;12.30;99.90
11961;DHT22;6040;49.358;11.140;2023-03-20T10:36:28;12.40;99.90
11961;DHT22;6040;49.358;11.140;2023-03-20T10:39:02;12.20;99.90
11961;DHT22;6040;49.358;11.140;2023-03-20T10:41:34;12.20;99.90
11961;DHT22;6040;49.358;11.140;2023-03-20T10:44:02;12.20;99.90
11961;DHT22;6040;49.358;11.140;2023-03-20T10:46:32;12.30;99.90
11961;DHT22;6040;49.358;11.140;2023-03-20T10:49:02;12.30;99.90
11961;DHT22;6040;49.358;11.140;2023-03-20T10:51:37;12.40;99.90
11961;DHT22;6040;49.358;11.140;2023-03-20T10:54:11;12.50;99.90
11961;DHT22;6040;49.358;11.140;2023-03-20T10:56:46;12.50;99.90
11961;DHT22;6040;49.358;11.140;2023-03-20T10:59:20;12.80;99.90
11961;DHT22;6040;49.358;11.140;2023-03-20T11:01:47;12.50;99.90
11961;DHT22;6040;49.358;11.140;2023-03-20T11:04:14;12.40;99.90
11961;DHT22;6040;49.358;11.140;2023-03-20T11:06:47;12.50;99.90
11961;DHT22;6040;49.358;11.140;2023-03-20T11:09:19;12.50;99.90
11961;DHT22;6040;49.358;11.140;2023-03-20T11:11:47;12.60;99.90
11961;DHT22;6040;49.358;11.140;2023-03-20T11:14:17;12.60;99.90
11961;DHT22;6040;49.358;11.140;2023-03-20T11:16:47;12.60;99.90
11961;DHT22;6040;49.358;11.140;2023-03-20T11:19:13;12.70;99.90
11961;DHT22;6040;49.358;11.140;2023-03-20T11:21:48;12.90;99.90
11961;DHT22;6040;49.358;11.140;2023-03-20T11:24:25;13.10;99.90
11961;DHT22;6040;49.358;11.140;2023-03-20T11:26:53;13.20;99.90
11961;DHT22;6040;49.358;11.140;2023-03-20T11:29:25;13.30;99.90
11961;DHT22;6040;49.358;11.140;2023-03-20T11:32:03;13.30;99.90
11961;DHT22;6040;49.358;11.140;2023-03-20T11:34:32;13.40;99.90
11961;DHT22;6040;49.358;11.140;2023-03-20T11:37:06;13.40;99.90
11961;DHT22;6040;49.358;11.140;2023-03-20T11:39:53;13.50;99.90
11961;DHT22;6040;49.358;11.140;2023-03-20T11:42:22;13.70;99.90
11961;DHT22;6040;49.358;11.140;2023-03-20T11:44:57;13.60;99.90
11961;DHT22;6040;49.358;11.140;2023-03-20T11:47:26;13.50;99.90
11961;DHT22;6040;49.358;11.140;2023-03-20T11:49:54;13.50;99.90
11961;DHT22;6040;49.358;11.140;2023-03-20T11:52:24;13.50;99.90
11961;DHT22;6040;49.358;11.140;2023-03-20T11:54:55;13.90;99.90
11961;DHT22;6040;49.358;11.140;2023-03-20T11:57:30;13.60;99.90
11961;DHT22;6040;49.358;11.140;2023-03-20T12:00:04;13.50;99.90
11961;DHT22;6040;49.358;11.140;2023-03-20T12:02:32;13.50;99.90
11961;DHT22;6040;49.358;11.140;2023-03-20T12:04:59;13.50;99.90
11961;DHT22;6040;49.358;11.140;2023-03-20T12:07:31;13.50;99.90
11961;DHT22;6040;49.358;11.140;2023-03-20T12:10:02;13.60;99.90
11961;DHT22;6040;49.358;11.140;2023-03-20T12:12:36;13.70;99.90
11961;DHT22;6040;49.358;11.140;2023-03-20T12:15:13;13.80;99.90
11961;DHT22;6040;49.358;11.140;2023-03-20T12:17:46;13.70;99.90
11961;DHT22;6040;49.358;11.140;2023-03-20T12:20:23;13.70;99.90
11961;DHT22;6040;49.358;11.140;2023-03-20T12:23:00;13.70;99.90
11961;DHT22;6040;49.358;11.140;2023-03-20T12:25:35;13.60;99.90
11961;DHT22;6040;49.358;11.140;2023-03-20T12:28:08;13.70;99.90
11961;DHT22;6040;49.358;11.140;2023-03-20T12:30:52;13.80;99.90
11961;DHT22;6040;49.358;11.140;2023-03-20T12:33:30;13.80;99.90
11961;DHT22;6040;49.358;11.140;2023-03-20T12:36:01;13.90;99.90
11961;DHT22;6040;49.358;11.140;2023-03-20T12:38:32;13.90;99.90
11961;DHT22;6040;49.358;11.140;2023-03-20T12:41:04;14.00;99.90
11961;DHT22;6040;49.358;11.140;2023-03-20T12:43:40;14.00;99.90
11961;DHT22;6040;49.358;11.140;2023-03-20T12:46:20;14.20;99.90
11961;DHT22;6040;49.358;11.140;2023-03-20T12:48:56;14.40;99.90
11961;DHT22;6040;49.358;11.140;2023-03-20T12:51:34;14.60;99.90
11961;DHT22;6040;49.358;11.140;2023-03-20T12:54:14;14.80;99.90
11961;DHT22;6040;49.358;11.140;2023-03-20T12:56:58;14.70;99.90
11961;DHT22;6040;49.358;11.140;2023-03-20T12:59:34;14.50;99.90
11961;DHT22;6040;49.358;11.140;2023-03-20T13:02:15;14.40;99.90
11961;DHT22;6040;49.358;11.140;2023-03-20T13:04:51;14.30;99.90
11961;DHT22;6040;49.358;11.140;2023-03-20T13:07:25;14.20;99.90
11961;DHT22;6040;49.358;11.140;2023-03-20T13:10:16;14.00;99.90
11961;DHT22;6040;49.358;11.140;2023-03-20T13:12:51;13.90;99.90
11961;DHT22;6040;49.358;11.140;2023-03-20T13:15:30;13.80;99.90
11961;DHT22;6040;49.358;11.140;2023-03-20T13:18:05;13.80;99.90
11961;DHT22;6040;49.358;11.140;2023-03-20T13:20:40;13.70;99.90
11961;DHT22;6040;49.358;11.140;2023-03-20T13:23:18;13.60;99.90
11961;DHT22;6040;49.358;11.140;2023-03-20T13:26:07;13.50;99.90
11961;DHT22;6040;49.358;11.140;2023-03-20T13:28:43;13.50;99.90
11961;DHT22;6040;49.358;11.140;2023-03-20T13:31:23;13.50;99.90
11961;DHT22;6040;49.358;11.140;2023-03-20T13:33:57;14.50;99.90
11961;DHT22;6040;49.358;11.140;2023-03-20T13:36:40;13.40;99.90
11961;DHT22;6040;49.358;11.140;2023-03-20T13:39:16;13.40;99.90
11961;DHT22;6040;49.358;11.140;2023-03-20T13:41:46;13.30;99.90
11961;DHT22;6040;49.358;11.140;2023-03-20T13:44:17;13.30;99.90
11961;DHT22;6040;49.358;11.140;2023-03-20T13:46:48;13.30;99.90
11961;DHT22;6040;49.358;11.140;2023-03-20T13:49:19;13.30;99.90
11961;DHT22;6040;49.358;11.140;2023-03-20T13:51:52;13.20;99.90
11961;DHT22;6040;49.358;11.140;2023-03-20T13:54:39;13.30;99.90
11961;DHT22;6040;49.358;11.140;2023-03-20T13:57:25;13.20;99.90
11961;DHT22;6040;49.358;11.140;2023-03-20T13:59:59;13.20;99.90
11961;DHT22;6040;49.358;11.140;2023-03-20T14:02:37;13.40;99.90
11961;DHT22;6040;49.358;11.140;2023-03-20T14:05:13;13.10;99.90
11961;DHT22;6040;49.358;11.140;2023-03-20T14:07:43;13.10;99.90
11961;DHT22;6040;49.358;11.140;2023-03-20T14:10:32;13.00;99.90
11961;DHT22;6040;49.358;11.140;2023-03-20T14:13:05;13.00;99.90
11961;DHT22;6040;49.358;11.140;2023-03-20T14:15:33;13.00;99.90
11961;DHT22;6040;49.358;11.140;2023-03-20T14:18:03;13.00;99.90
11961;DHT22;6040;49.358;11.140;2023-03-20T14:20:32;13.10;99.90
11961;DHT22;6040;49.358;11.140;2023-03-20T14:23:00;13.10;99.90
11961;DHT22;6040;49.358;11.140;2023-03-20T14:25:33;13.10;99.90
11961;DHT22;6040;49.358;11.140;2023-03-20T14:28:21;13.20;99.90
11961;DHT22;6040;49.358;11.140;2023-03-20T14:30:49;14.10;99.90
11961;DHT22;6040;49.358;11.140;2023-03-20T14:33:25;13.20;99.90
11961;DHT22;6040;49.358;11.140;2023-03-20T14:36:10;13.20;99.90
11961;DHT22;6040;49.358;11.140;2023-03-20T14:38:45;13.20;99.90
11961;DHT22;6040;49.358;11.140;2023-03-20T14:41:18;13.10;99.90
11961;DHT22;6040;49.358;11.140;2023-03-20T14:43:57;13.20;99.90
11961;DHT22;6040;49.358;11.140;2023-03-20T14:46:32;13.20;99.90
11961;DHT22;6040;49.358;11.140;2023-03-20T14:49:12;13.20;99.90
11961;DHT22;6040;49.358;11.140;2023-03-20T14:51:45;13.30;99.90
11961;DHT22;6040;49.358;11.140;2023-03-20T14:54:25;13.30;99.90
11961;DHT22;6040;49.358;11.140;2023-03-20T14:56:53;13.30;99.90
11961;DHT22;6040;49.358;11.140;2023-03-20T14:59:22;13.30;99.90
11961;DHT22;6040;49.358;11.140;2023-03-20T15:01:57;13.70;99.90
11961;DHT22;6040;49.358;11.140;2023-03-20T15:04:30;13.10;99.90
11961;DHT22;6040;49.358;11.140;2023-03-20T15:07:01;12.90;99.90
11961;DHT22;6040;49.358;11.140;2023-03-20T15:09:30;12.80;99.90
11961;DHT22;6040;49.358;11.140;2023-03-20T15:11:58;12.70;99.90
11961;DHT22;6040;49.358;11.140;2023-03-20T15:14:33;12.70;99.90
11961;DHT22;6040;49.358;11.140;2023-03-20T15:17:02;12.60;99.90
11961;DHT22;6040;49.358;11.140;2023-03-20T15:19:29;12.50;99.90
11961;DHT22;6040;49.358;11.140;2023-03-20T15:21:58;12.60;99.90
11961;DHT22;6040;49.358;11.140;2023-03-20T15:24:26;12.60;99.90
11961;DHT22;6040;49.358;11.140;2023-03-20T15:26:56;12.60;99.90
11961;DHT22;6040;49.358;11.140;2023-03-20T15:29:24;12.60;99.90
11961;DHT22;6040;49.358;11.140;2023-03-20T15:31:54;13.30;99.90
11961;DHT22;6040;49.358;11.140;2023-03-20T15:34:24;12.60;99.90
11961;DHT22;6040;49.358;11.140;2023-03-20T15:36:54;12.60;99.90
11961;DHT22;6040;49.358;11.140;2023-03-20T15:39:23;12.60;99.90
11961;DHT22;6040;49.358;11.140;2023-03-20T15:41:52;12.60;99.90
11961;DHT22;6040;49.358;11.140;2023-03-20T15:44:22;12.60;99.90
11961;DHT22;6040;49.358;11.140;2023-03-20T15:46:54;12.50;99.90
11961;DHT22;6040;49.358;11.140;2023-03-20T15:49:22;12.50;99.90
11961;DHT22;6040;49.358;11.140;2023-03-20T15:51:50;12.50;99.90
11961;DHT22;6040;49.358;11.140;2023-03-20T15:54:18;12.40;99.90
11961;DHT22;6040;49.358;11.140;2023-03-20T15:56:49;12.30;99.90
11961;DHT22;6040;49.358;11.140;2023-03-20T15:59:17;12.40;99.90
11961;DHT22;6040;49.358;11.140;2023-03-20T16:01:46;12.30;99.90
11961;DHT22;6040;49.358;11.140;2023-03-20T16:04:16;12.30;99.90
11961;DHT22;6040;49.358;11.140;2023-03-20T16:06:47;12.30;99.90
11961;DHT22;6040;49.358;11.140;2023-03-20T16:09:15;12.20;99.90
11961;DHT22;6040;49.358;11.140;2023-03-20T16:11:44;12.20;99.90
11961;DHT22;6040;49.358;11.140;2023-03-20T16:14:15;12.30;99.90
11961;DHT22;6040;49.358;11.140;2023-03-20T16:16:43;12.30;99.90
11961;DHT22;6040;49.358;11.140;2023-03-20T16:19:12;12.20;99.90
11961;DHT22;6040;49.358;11.140;2023-03-20T16:21:43;13.00;99.90
11961;DHT22;6040;49.358;11.140;2023-03-20T16:24:17;12.10;99.90
11961;DHT22;6040;49.358;11.140;2023-03-20T16:26:48;12.10;99.90
11961;DHT22;6040;49.358;11.140;2023-03-20T16:29:17;12.00;99.90